Francisville, Kentucky
Current Conditions -  °F | °C
As of 12:52 PM on Monday 24 Nov 2014 (Local Time) from KCVG Reporting Station
Overcast Overcast  
Wind Chill: 41°   Ceiling: 2000
Heat Index: 47°   Visibility: 10mi
Dew Point: 37°   Wind: 15mph
Humidity: 68%   Direction: 250°WSW
Pressure: 29.59"   Gusts: 35mph
Location:  39.0882°N, 84.7043°W
Report Text: KCVG 241752Z 25013G30KT 10SM BKN020 OVC026 08/03 A2959 RMK AO2 PK WND 25036/1735 SLP016 60006 T00830028 10167 20083 51043
Loading
Personal Weather Stations






























Interactive Weather Map New forecast layout! Learn more

10-Day Weather Forecast

Advertisements
Track Severe Weather on mobile